Nearby METAR Reports for Burr Ridge, IL

 

KMDW - Chicago, Illinois, USA
Distance from station: ENE 8mi, 13km
Updated: Fri, 19-Jan-2018 11:53pm MST
Overcast
Overcast
 Wind from SW
Wind: SW 15 mph , 24 km/h
Temperature: 37°F , 3°C
Wind Chill: 28°F , -2°C
Dew Point: 28°F , -2°C
Humidity: 70%
Barometer: 29.80 inHg , 1009.1 hPa
Clouds: Overcast
Visibility: 10 miles , 16 km
Cloud details: Partly cloudy 25000 ft
Overcast 30000 ft
2018/01/20 06:53 KMDW 200653Z 22013KT 10SM SCT250 OVC300 03/M02 A2980 RMK AO2 SLP098 T00331022
KLOT - Romeoville/Chi, Illinois, USA
Distance from station: SW 15mi, 24km
Updated: Sat, 20-Jan-2018 12:15am MST
Clear
Clear
 Wind from SW
Wind: SW 12 mph , 19 km/h
Temperature: 36°F , 2°C
Wind Chill: 28°F , -2°C
Dew Point: 28°F , -2°C
Humidity: 75%
Barometer: 29.82 inHg , 1009.8 hPa
Clouds: Clear
Visibility: 10 miles , 16 km
2018/01/20 07:15 KLOT 200715Z AUTO 22010KT 10SM CLR 02/M02 A2982 RMK AO2 T00151020
 
KORD - Chicago O'hare, Illinois, USA
Distance from station: N 16mi, 25km
Updated: Fri, 19-Jan-2018 11:51pm MST
Few Clouds
Few Clouds
 Wind from SW
Wind: SW 14 mph , 22 km/h
Temperature: 37°F , 3°C
Wind Chill: 28°F , -2°C
Dew Point: 27°F , -3°C
Humidity: 65%
Barometer: 29.78 inHg , 1008.5 hPa
Clouds: Few Clouds
Visibility: 10 miles , 16 km
Cloud details: Few Clouds 25000 ft
2018/01/20 06:51 KORD 200651Z 23012KT 10SM FEW250 03/M03 A2978 RMK AO2 SLP089 T00331028
KDPA - Chicago/Dupage, Illinois, USA
Distance from station: WNW 21mi, 34km
Updated: Fri, 19-Jan-2018 11:52pm MST
Clear
Clear
 Wind from SSW
Wind: SSW 14 mph , 22 km/h
Temperature: 36°F , 2°C
Wind Chill: 27°F , -3°C
Dew Point: 28°F , -2°C
Humidity: 75%
Barometer: 29.79 inHg , 1008.8 hPa
Clouds: Clear
Visibility: 9 miles , 14 km
2018/01/20 06:52 KDPA 200652Z 21012KT 9SM CLR 02/M02 A2979 RMK AO2 SLP093 T00171022
 
KJOT - Joliet, Illinois, USA
Distance from station: SW 22mi, 36km
Updated: Sat, 20-Jan-2018 12:15am MST
Clear
Clear
 Wind from SSW
Wind: SSW 7 mph , 11 km/h
Temperature: 37°F , 3°C
Wind Chill: 32°F , 0°C
Dew Point: 30°F , -1°C
Humidity: 75%
Barometer: 29.84 inHg , 1010.5 hPa
Clouds: Clear
Visibility: 10 miles , 16 km
2018/01/20 07:15 KJOT 200715Z AUTO 21006KT 10SM CLR 03/M01 A2984 RMK AO2 T00281015
KIGQ - Chicago/Lansing, Illinois, USA
Distance from station: SE 24mi, 39km
Updated: Sat, 20-Jan-2018 12:15am MST
Clear
Clear
 Wind from SW
Wind: SW 13 mph , 20 km/h, Gust: 17 mph , 28 km/h
Temperature: 34°F , 1°C
Wind Chill: 25°F , -4°C
Dew Point: 30°F , -1°C
Humidity: 87%
Barometer: 29.83 inHg , 1010.2 hPa
Clouds: Clear
Visibility: 10 miles , 16 km
2018/01/20 07:15 KIGQ 200715Z AUTO 22011G15KT 10SM CLR 01/M01 A2983 RMK AO2 T00101015
 
KPWK - Palwaukee, Illinois, USA
Distance from station: N 25mi, 40km
Updated: Fri, 19-Jan-2018 11:52pm MST
Clear
Clear
 Wind from SW
Wind: SW 9 mph , 15 km/h
Temperature: 39°F , 4°C
Wind Chill: 33°F , 1°C
Dew Point: 28°F , -2°C
Humidity: 65%
Barometer: 29.79 inHg , 1008.8 hPa
Clouds: Clear
Visibility: 10 miles , 16 km
2018/01/20 06:52 KPWK 200652Z AUTO 22008KT 10SM CLR 04/M02 A2979 RMK AO2 SLP091 T00391022
KGYY - Gary Regional, Indiana, USA
Distance from station: ESE 27mi, 43km
Updated: Sat, 20-Jan-2018 12:15am MST
Clear
Clear
 Wind from SSW
Wind: SSW 12 mph , 19 km/h, Gust: 20 mph , 31 km/h
Temperature: 37°F , 3°C
Wind Chill: 29°F , -2°C
Dew Point: 27°F , -3°C
Humidity: 65%
Barometer: 29.82 inHg , 1009.8 hPa
Clouds: Clear
Visibility: 10 miles , 16 km
2018/01/20 07:15 KGYY 200715Z AUTO 21010G17KT 10SM CLR 03/M03 A2982 RMK AO2 T00321028
 
KARR - Chicago/Aurora, Illinois, USA
Distance from station: W 30mi, 48km
Updated: Fri, 19-Jan-2018 11:52pm MST
Clear
Clear
 Wind from SSW
Wind: SSW 8 mph , 13 km/h
Temperature: 34°F , 1°C
Wind Chill: 27°F , -3°C
Dew Point: 28°F , -2°C
Humidity: 81%
Barometer: 29.81 inHg , 1009.5 hPa
Clouds: Clear
Visibility: 10 miles , 16 km
2018/01/20 06:52 KARR 200652Z AUTO 20007KT 10SM CLR 01/M02 A2981 RMK AO2 SLP099 T00111022
KC09 - Morris-Washburn, Illinois, USA
Distance from station: SW 35mi, 56km
Updated: Sat, 20-Jan-2018 12:15am MST
Clear
Clear
 Wind from SSW
Wind: SSW 9 mph , 15 km/h
Temperature: 34°F , 1°C
Wind Chill: 27°F , -3°C
Dew Point: 28°F , -2°C
Humidity: 81%
Barometer: 29.83 inHg , 1010.2 hPa
Clouds: Clear
Visibility: 10 miles , 16 km
2018/01/20 07:15 KC09 200715Z AUTO 21008KT 10SM CLR 01/M02 A2983 RMK AO2 T00141018
 
KDKB - De Kalb, Illinois, USA
Distance from station: WNW 43mi, 69km
Updated: Sat, 20-Jan-2018 12:15am MST
Clear
Clear
 Wind from SW
Wind: SW 10 mph , 17 km/h
Temperature: 37°F , 3°C
Wind Chill: 30°F , -1°C
Dew Point: 28°F , -2°C
Humidity: 70%
Barometer: 29.80 inHg , 1009.1 hPa
Clouds: Clear
Visibility: 10 miles , 16 km
2018/01/20 07:15 KDKB 200715Z AUTO 23009KT 10SM CLR 03/M02 A2980 RMK AO2 T00271017
KUGN - Waukegan, Illinois, USA
Distance from station: N 46mi, 73km
Updated: Fri, 19-Jan-2018 11:55pm MST
Clear
Clear
 Wind from WSW
Wind: WSW 8 mph , 13 km/h
Temperature: 39°F , 4°C
Wind Chill: 33°F , 1°C
Dew Point: 28°F , -2°C
Humidity: 65%
Barometer: 29.75 inHg , 1007.5 hPa
Clouds: Clear
Visibility: 10 miles , 16 km
2018/01/20 06:55 KUGN 200655Z AUTO 24007KT 10SM CLR 04/M02 A2975 RMK AO2 SLP080 T00441022
 
KIKK - Kankakee, Illinois, USA
Distance from station: S 48mi, 77km
Updated: Sat, 20-Jan-2018 12:15am MST
Clear
Clear
 Wind from SSW
Wind: SSW 15 mph , 24 km/h, Gust: 23 mph , 37 km/h
Barometer: 29.87 inHg , 1011.5 hPa
Clouds: Clear
Visibility: 10 miles , 16 km
2018/01/20 07:15 KIKK 200715Z AUTO 21013G20KT 10SM CLR A2987 RMK AO2